Time;durP1;ratioP1;P1;durP2;ratioP2;P2;SDS_P1;SDS_P2;PMS_P1;PMS_P2;Temp;Humidity;BMP_temperature;BMP_pressure;BME280_temperature;BME280_humidity;BME280_pressure;Samples;Min_cycle;Max_cycle;Signal;HPM_P1;HPM_P2
2022/12/24 00:01:26;;;;;;;;;;;;;;;8.43;55.97;98641.34;5032378;28;19917;-80
2022/12/24 00:03:51;;;;;;;;;;;;;;;8.42;56.18;98639.72;5032318;28;19964;-80
2022/12/24 00:06:18;;;;;;;;;;;;;;;8.40;56.09;98639.00;5032612;28;19917;-80
2022/12/24 00:08:43;;;;;;;;;;;;;;;8.37;56.00;98637.41;5016841;28;19921;-79
2022/12/24 00:11:08;;;;;;;;;;;;;;;8.34;55.91;98637.63;5032461;28;19923;-80
2022/12/24 00:13:34;;;;;;;;;;;;;;;8.33;55.81;98635.94;5016077;28;19967;-82
2022/12/24 00:15:59;;;;;;;;;;;;;;;8.30;56.00;98636.16;5032248;28;20288;-83
2022/12/24 00:18:25;;;;;;;;;;;;;;;8.28;56.24;98640.66;5015159;28;19917;-80
2022/12/24 00:20:50;;;;;;;;;;;;;;;8.26;56.18;98643.34;5031304;28;20015;-81
2022/12/24 00:23:15;;;;;;;;;;;;;;;8.25;56.35;98646.06;5014895;28;19932;-81
2022/12/24 00:25:41;;;;;;;;;;;;;;;8.23;55.81;98645.34;5016211;28;19924;-82
2022/12/24 00:28:06;;;;;;;;;;;;;;;8.22;56.33;98652.28;5015495;28;20354;-81
2022/12/24 00:30:31;;;;;;;;;;;;;;;8.20;56.04;98645.53;5033050;28;20443;-81
2022/12/24 00:32:57;;;;;;;;;;;;;;;8.19;55.86;98654.28;5032432;28;19939;-81
2022/12/24 00:35:22;;;;;;;;;;;;;;;8.18;56.24;98652.63;5050992;28;19978;-81
2022/12/24 00:37:47;;;;;;;;;;;;;;;8.14;56.19;98655.44;5015610;28;19920;-81
2022/12/24 00:40:13;;;;;;;;;;;;;;;8.12;56.21;98649.47;5049842;28;19921;-81
2022/12/24 00:42:38;;;;;;;;;;;;;;;8.10;55.95;98646.16;5015558;28;19948;-81
2022/12/24 00:45:04;;;;;;;;;;;;;;;8.07;56.00;98641.16;5031796;28;19950;-81
2022/12/24 00:47:29;;;;;;;;;;;;;;;8.05;56.06;98648.25;5031999;28;20000;-81
2022/12/24 00:49:54;;;;;;;;;;;;;;;8.04;56.13;98656.16;5015398;28;19975;-81
2022/12/24 00:52:19;;;;;;;;;;;;;;;8.02;56.11;98656.25;5050137;28;19924;-80
2022/12/24 00:54:45;;;;;;;;;;;;;;;7.99;55.96;98651.25;5032126;28;20400;-81
2022/12/24 00:57:10;;;;;;;;;;;;;;;7.97;55.81;98653.97;5049839;28;20315;-80
2022/12/24 00:59:36;;;;;;;;;;;;;;;7.95;55.98;98652.38;5015632;28;19952;-80
2022/12/24 01:02:01;;;;;;;;;;;;;;;7.93;56.22;98657.69;5031964;28;19917;-81
2022/12/24 01:07:10;;;;;;;;;;;;;;;7.91;55.90;98653.53;5032906;28;19976;-79
2022/12/24 01:09:35;;;;;;;;;;;;;;;7.88;56.25;98646.78;5031503;28;19924;-80
2022/12/24 01:12:01;;;;;;;;;;;;;;;7.86;55.91;98640.84;5013450;28;19924;-80
2022/12/24 01:14:26;;;;;;;;;;;;;;;7.87;56.17;98639.06;5049836;28;19921;-80
2022/12/24 01:16:51;;;;;;;;;;;;;;;7.87;55.55;98644.28;5015803;28;19959;-80
2022/12/24 01:19:17;;;;;;;;;;;;;;;7.84;56.01;98627.09;5032346;28;20007;-80
2022/12/24 01:21:42;;;;;;;;;;;;;;;7.82;56.31;98630.75;5032971;28;20220;-80
2022/12/24 01:24:10;;;;;;;;;;;;;;;7.79;56.29;98630.00;5034951;28;19920;-80
2022/12/24 01:26:35;;;;;;;;;;;;;;;7.79;55.60;98630.00;5034661;28;20055;-80
2022/12/24 01:29:01;;;;;;;;;;;;;;;7.78;56.30;98620.56;5053299;28;20015;-80
2022/12/24 01:31:26;;;;;;;;;;;;;;;7.77;56.19;98616.28;5035732;28;20015;-80
2022/12/24 01:33:51;;;;;;;;;;;;;;;7.76;55.91;98617.25;5035245;28;20045;-81
2022/12/24 01:36:17;;;;;;;;;;;;;;;7.76;56.07;98611.19;5018442;28;19925;-80
2022/12/24 01:38:42;;;;;;;;;;;;;;;7.74;55.70;98615.66;5036064;28;20411;-81
2022/12/24 01:43:56;;;;;;;;;;;;;;;7.70;55.65;98604.66;5039887;28;19971;-81
2022/12/24 01:46:25;;;;;;;;;;;;;;;7.68;56.21;98611.69;5034603;28;19980;-79
2022/12/24 01:48:50;;;;;;;;;;;;;;;7.67;56.37;98609.22;5018552;28;19971;-79
2022/12/24 01:51:27;;;;;;;;;;;;;;;7.66;56.04;98610.16;5053529;28;20011;-82
2022/12/24 01:53:54;;;;;;;;;;;;;;;7.65;55.99;98611.91;5035831;28;19990;-82
2022/12/24 01:56:19;;;;;;;;;;;;;;;7.63;56.06;98613.78;5053169;28;19956;-83
2022/12/24 01:58:45;;;;;;;;;;;;;;;7.61;56.37;98605.25;5052716;28;19963;-81
2022/12/24 02:01:10;;;;;;;;;;;;;;;7.60;56.24;98603.59;5035435;28;19971;-82
2022/12/24 02:03:36;;;;;;;;;;;;;;;7.59;55.78;98607.09;5035190;28;19970;-81
2022/12/24 02:06:01;;;;;;;;;;;;;;;7.57;56.35;98611.59;5017857;28;19980;-81
2022/12/24 02:08:38;;;;;;;;;;;;;;;7.55;56.10;98600.47;5017880;28;20437;-82
2022/12/24 02:11:14;;;;;;;;;;;;;;;7.54;55.78;98609.19;5050272;28;19929;-82
2022/12/24 02:13:39;;;;;;;;;;;;;;;7.53;55.92;98602.34;5019074;28;20396;-80
2022/12/24 02:16:07;;;;;;;;;;;;;;;7.51;56.30;98604.19;5018516;28;19964;-79
2022/12/24 02:18:44;;;;;;;;;;;;;;;7.50;56.15;98599.94;5035003;28;19916;-79
2022/12/24 02:21:16;;;;;;;;;;;;;;;7.47;56.26;98598.38;5054564;28;19917;-79
2022/12/24 02:23:50;;;;;;;;;;;;;;;7.46;56.21;98596.69;5036821;28;19938;-78
2022/12/24 02:26:34;;;;;;;;;;;;;;;7.45;56.42;98604.59;5054929;28;19924;-79
2022/12/24 02:29:17;;;;;;;;;;;;;;;7.42;56.10;98611.66;5053899;28;20392;-80
2022/12/24 02:31:51;;;;;;;;;;;;;;;7.41;56.24;98607.38;5054065;28;19916;-78
2022/12/24 02:34:35;;;;;;;;;;;;;;;7.40;56.41;98610.09;5053193;28;19956;-79
2022/12/24 02:37:11;;;;;;;;;;;;;;;7.39;56.30;98604.06;5018953;28;19924;-79
2022/12/24 02:39:42;;;;;;;;;;;;;;;7.38;56.09;98610.19;5035934;28;20019;-79
2022/12/24 02:42:08;;;;;;;;;;;;;;;7.36;56.36;98606.88;5036217;28;19921;-81
2022/12/24 02:44:44;;;;;;;;;;;;;;;7.34;56.56;98600.94;5019495;28;20301;-82
2022/12/24 02:47:09;;;;;;;;;;;;;;;7.34;56.64;98595.75;5035636;28;19917;-81
2022/12/24 02:49:35;;;;;;;;;;;;;;;7.34;56.45;98602.72;5053826;28;19917;-81
2022/12/24 02:52:00;;;;;;;;;;;;;;;7.33;56.27;98607.06;5019441;28;19948;-80
2022/12/24 02:54:25;;;;;;;;;;;;;;;7.30;56.00;98612.44;5053693;28;19917;-80
2022/12/24 02:56:57;;;;;;;;;;;;;;;7.29;56.23;98610.81;5036666;28;19917;-79
2022/12/24 02:59:34;;;;;;;;;;;;;;;7.28;56.34;98603.94;5019961;28;20432;-79
2022/12/24 03:02:29;;;;;;;;;;;;;;;7.28;56.73;98603.13;5036337;28;19990;-80
2022/12/24 03:04:54;;;;;;;;;;;;;;;7.27;56.63;98601.44;5036167;28;20035;-79
2022/12/24 03:07:25;;;;;;;;;;;;;;;7.26;56.26;98611.00;5053303;28;20395;-79
2022/12/24 03:10:09;;;;;;;;;;;;;;;7.25;56.51;98620.53;5034830;28;19917;-79
2022/12/24 03:12:38;;;;;;;;;;;;;;;7.24;56.19;98615.44;5053065;28;19948;-79
2022/12/24 03:15:04;;;;;;;;;;;;;;;7.22;56.54;98618.13;5035089;28;19927;-79
2022/12/24 03:17:29;;;;;;;;;;;;;;;7.22;56.53;98622.50;5034697;28;20007;-80
2022/12/24 03:19:55;;;;;;;;;;;;;;;7.22;56.42;98615.53;5018135;28;20381;-79
2022/12/24 03:22:20;;;;;;;;;;;;;;;7.23;56.84;98624.19;5053123;28;19917;-78
2022/12/24 03:24:45;;;;;;;;;;;;;;;7.20;56.77;98622.59;5035490;28;20539;-79
2022/12/24 03:27:11;;;;;;;;;;;;;;;7.21;56.56;98626.03;5035324;28;20311;-79
2022/12/24 03:29:37;;;;;;;;;;;;;;;7.19;56.62;98618.34;5034177;28;19960;-79
2022/12/24 03:32:03;;;;;;;;;;;;;;;7.20;56.28;98625.19;5035058;28;19917;-80
2022/12/24 03:34:28;;;;;;;;;;;;;;;7.19;56.81;98620.09;5018378;28;19946;-78
2022/12/24 03:36:53;;;;;;;;;;;;;;;7.19;56.76;98618.34;5053543;28;19927;-80
2022/12/24 03:39:18;;;;;;;;;;;;;;;7.18;56.53;98615.84;5034873;28;19975;-80
2022/12/24 03:41:44;;;;;;;;;;;;;;;7.18;56.91;98623.63;5035479;28;20292;-80
2022/12/24 03:44:09;;;;;;;;;;;;;;;7.17;57.33;98615.00;5052037;28;19971;-80
2022/12/24 03:46:34;;;;;;;;;;;;;;;7.16;56.69;98617.72;5034656;28;19932;-80
2022/12/24 03:49:00;;;;;;;;;;;;;;;7.16;56.83;98617.72;5017931;28;19916;-82
2022/12/24 03:51:25;;;;;;;;;;;;;;;7.15;57.16;98616.06;5033676;28;20019;-80
2022/12/24 03:53:51;;;;;;;;;;;;;;;7.15;56.70;98613.47;5034594;28;19917;-80
2022/12/24 03:56:16;;;;;;;;;;;;;;;7.14;56.79;98612.59;5034669;28;20457;-80
2022/12/24 03:58:41;;;;;;;;;;;;;;;7.13;57.01;98610.13;5052862;28;20315;-81
2022/12/24 04:01:07;;;;;;;;;;;;;;;7.13;56.79;98610.13;5018161;28;19970;-82
2022/12/24 04:03:32;;;;;;;;;;;;;;;7.11;56.80;98610.22;5035223;28;19923;-80
2022/12/24 04:06:04;;;;;;;;;;;;;;;7.09;57.09;98606.06;5018249;28;19917;-81
2022/12/24 04:08:30;;;;;;;;;;;;;;;7.09;56.49;98613.84;5034941;28;19917;-80
2022/12/24 04:10:55;;;;;;;;;;;;;;;7.07;56.50;98619.16;5051949;28;19917;-80
2022/12/24 04:13:20;;;;;;;;;;;;;;;7.06;56.81;98620.06;5034812;28;19916;-80
2022/12/24 04:15:55;;;;;;;;;;;;;;;7.05;57.25;98619.25;5017618;28;19927;-81
2022/12/24 04:18:20;;;;;;;;;;;;;;;7.04;57.12;98617.56;5052023;28;19968;-79
2022/12/24 04:20:45;;;;;;;;;;;;;;;7.03;57.19;98612.47;5033749;28;19917;-81
2022/12/24 04:23:11;;;;;;;;;;;;;;;7.03;57.62;98615.06;5033464;28;19924;-80
2022/12/24 04:25:36;;;;;;;;;;;;;;;7.02;56.67;98618.59;5051913;28;20391;-80
2022/12/24 04:28:01;;;;;;;;;;;;;;;7.01;56.47;98616.94;5033758;28;20015;-81
2022/12/24 04:30:27;;;;;;;;;;;;;;;7.01;56.43;98617.75;5032494;28;19921;-80
2022/12/24 04:32:52;;;;;;;;;;;;;;;6.99;57.05;98616.19;5033773;28;19917;-81
2022/12/24 04:35:17;;;;;;;;;;;;;;;6.99;56.77;98616.19;5033863;28;19917;-80
2022/12/24 04:37:42;;;;;;;;;;;;;;;6.98;56.38;98615.34;5017172;28;20407;-81
2022/12/24 04:40:08;;;;;;;;;;;;;;;6.97;56.81;98618.03;5018043;28;20424;-78
2022/12/24 04:42:33;;;;;;;;;;;;;;;6.95;57.09;98610.34;5035472;28;19920;-79
2022/12/24 04:44:59;;;;;;;;;;;;;;;6.95;57.20;98610.34;5034415;28;19917;-79
2022/12/24 04:47:24;;;;;;;;;;;;;;;6.93;57.25;98614.81;5051831;28;19916;-79
2022/12/24 04:49:49;;;;;;;;;;;;;;;6.93;57.26;98614.00;5034923;28;19975;-79
2022/12/24 04:52:14;;;;;;;;;;;;;;;6.92;56.86;98614.91;5034493;28;19975;-79
2022/12/24 04:54:40;;;;;;;;;;;;;;;6.91;57.19;98624.47;5032939;28;20388;-79
2022/12/24 04:57:05;;;;;;;;;;;;;;;6.89;56.79;98628.91;5033753;28;19974;-79
2022/12/24 04:59:30;;;;;;;;;;;;;;;6.88;56.49;98625.50;5037980;28;20036;-79
2022/12/24 05:01:56;;;;;;;;;;;;;;;6.88;57.09;98622.06;5037789;28;19921;-79
2022/12/24 05:04:21;;;;;;;;;;;;;;;6.85;56.88;98619.66;5038198;28;19925;-79
2022/12/24 05:06:46;;;;;;;;;;;;;;;6.83;57.03;98616.31;5055377;28;19925;-80
2022/12/24 05:09:12;;;;;;;;;;;;;;;6.82;57.46;98619.84;5037802;28;20319;-80
2022/12/24 05:11:37;;;;;;;;;;;;;;;6.81;56.44;98623.38;5038620;28;19917;-81
2022/12/24 05:14:02;;;;;;;;;;;;;;;6.79;57.00;98623.47;5036843;28;19916;-80
2022/12/24 05:16:28;;;;;;;;;;;;;;;6.78;56.65;98620.97;5037492;28;19924;-79
2022/12/24 05:18:53;;;;;;;;;;;;;;;6.78;57.38;98626.16;5038253;28;20384;-80
2022/12/24 05:21:20;;;;;;;;;;;;;;;6.76;57.00;98626.25;5021241;28;20366;-81
2022/12/24 05:26:32;;;;;;;;;;;;;;;6.74;57.25;98627.28;5055722;28;19923;-79
2022/12/24 05:28:58;;;;;;;;;;;;;;;6.73;57.19;98628.22;5055013;28;19968;-79
2022/12/24 05:31:24;;;;;;;;;;;;;;;6.73;56.83;98629.03;5035863;28;19967;-80
2022/12/24 05:33:50;;;;;;;;;;;;;;;6.72;56.09;98624.78;5018384;28;19917;-81
2022/12/24 05:36:15;;;;;;;;;;;;;;;6.73;56.70;98634.22;5017989;28;19928;-80
2022/12/24 05:38:41;;;;;;;;;;;;;;;6.75;56.36;98636.72;5035264;28;19931;-80
2022/12/24 05:41:06;;;;;;;;;;;;;;;6.74;56.62;98630.72;5019070;28;19921;-83
2022/12/24 05:43:31;;;;;;;;;;;;;;;6.76;56.53;98631.44;5018696;28;20024;-83
2022/12/24 05:46:00;;;;;;;;;;;;;;;6.77;56.02;98630.53;5019032;28;19921;-82
2022/12/24 05:48:25;;;;;;;;;;;;;;;6.80;56.62;98630.34;5018151;28;19925;-82
2022/12/24 05:50:51;;;;;;;;;;;;;;;6.83;56.49;98647.44;5019433;28;19976;-83
2022/12/24 05:53:16;;;;;;;;;;;;;;;6.87;56.08;98647.16;5035427;28;19929;-82
2022/12/24 05:55:42;;;;;;;;;;;;;;;7.04;55.91;98648.72;5035382;28;20357;-82
2022/12/24 05:58:07;;;;;;;;;;;;;;;7.31;55.16;98650.47;5035042;28;20353;-79
2022/12/24 06:00:32;;;;;;;;;;;;;;;7.67;55.06;98662.03;5035076;28;19917;-80
2022/12/24 06:02:58;;;;;;;;;;;;;;;8.08;53.86;98657.59;5014892;28;19917;-78
2022/12/24 06:05:23;;;;;;;;;;;;;;;8.56;52.90;98665.63;5016702;28;19978;-80
2022/12/24 06:07:48;;;;;;;;;;;;;;;9.12;51.13;98661.75;5050975;28;19932;-80
2022/12/24 06:10:13;;;;;;;;;;;;;;;9.76;50.22;98666.66;5032022;28;19996;-81
2022/12/24 06:12:39;;;;;;;;;;;;;;;10.50;48.68;98668.97;5034415;28;19920;-82
2022/12/24 06:15:04;;;;;;;;;;;;;;;11.34;46.94;98666.69;5015702;28;19928;-83
2022/12/24 06:17:30;;;;;;;;;;;;;;;12.23;45.01;98669.03;5015853;28;19916;-83
2022/12/24 06:19:55;;;;;;;;;;;;;;;13.09;42.50;98671.28;5016331;28;19917;-81
2022/12/24 06:22:20;;;;;;;;;;;;;;;13.91;41.22;98671.91;5017345;28;20020;-83
2022/12/24 06:24:46;;;;;;;;;;;;;;;14.79;39.24;98676.97;5018215;28;19913;-81
2022/12/24 06:27:11;;;;;;;;;;;;;;;15.43;38.46;98669.94;5035252;28;19917;-87
2022/12/24 06:29:51;;;;;;;;;;;;;;;15.57;43.68;98671.22;5035093;28;19928;-85
2022/12/24 06:32:16;;;;;;;;;;;;;;;14.91;44.59;98680.22;5035064;28;19990;-84
2022/12/24 06:34:42;;;;;;;;;;;;;;;15.20;42.20;98680.88;5035321;28;20391;-79
2022/12/24 06:37:15;;;;;;;;;;;;;;;15.30;41.09;98682.63;5033210;28;19964;-77
2022/12/24 06:39:40;;;;;;;;;;;;;;;15.23;40.86;98674.50;5051635;28;19928;-79
2022/12/24 06:42:05;;;;;;;;;;;;;;;15.50;40.23;98675.44;5051302;28;19917;-87
2022/12/24 06:44:31;;;;;;;;;;;;;;;15.73;39.96;98667.91;5034313;28;20347;-92
2022/12/24 06:46:56;;;;;;;;;;;;;;;15.74;39.73;98673.00;5036379;28;19967;-83
2022/12/24 06:49:21;;;;;;;;;;;;;;;15.95;39.09;98661.34;5018765;28;20103;-81
2022/12/24 06:51:47;;;;;;;;;;;;;;;15.95;44.57;98658.72;5035559;28;19920;-87
2022/12/24 06:54:13;;;;;;;;;;;;;;;16.32;47.75;98655.03;5034908;28;19925;-89
2022/12/24 06:56:39;;;;;;;;;;;;;;;16.92;48.72;98655.97;5027898;28;20041;-81
2022/12/24 06:59:07;;;;;;;;;;;;;;;17.40;47.59;98654.47;5044099;28;19924;-85
2022/12/24 07:01:32;;;;;;;;;;;;;;;17.50;44.15;98655.13;5025504;28;19921;-82
2022/12/24 07:03:58;;;;;;;;;;;;;;;17.86;42.84;98648.69;5042583;28;19968;-86
2022/12/24 07:06:24;;;;;;;;;;;;;;;18.12;44.16;98653.81;5025684;28;20400;-88
2022/12/24 07:08:50;;;;;;;;;;;;;;;18.50;42.67;98651.44;5025908;28;20339;-88
2022/12/24 07:11:15;;;;;;;;;;;;;;;18.87;40.22;98660.56;5025019;28;19925;-87
2022/12/24 07:13:41;;;;;;;;;;;;;;;19.25;38.96;98655.41;5043422;28;19917;-88
2022/12/24 07:16:06;;;;;;;;;;;;;;;19.68;39.74;98653.13;5008123;28;19959;-89
2022/12/24 07:18:31;;;;;;;;;;;;;;;20.13;42.44;98647.97;5042474;28;20017;-82
2022/12/24 07:20:57;;;;;;;;;;;;;;;20.59;44.64;98661.06;5008249;28;19917;-83
2022/12/24 07:23:22;;;;;;;;;;;;;;;20.97;49.20;98654.84;5012885;28;19924;-76
2022/12/24 07:25:47;;;;;;;;;;;;;;;21.59;60.29;98666.75;5056251;28;20442;-90
2022/12/24 07:28:14;;;;;;;;;;;;;;;21.97;60.35;98661.16;5021022;28;19920;-91
2022/12/24 07:30:39;;;;;;;;;;;;;;;22.44;63.84;98655.34;5021528;28;19920;-88
2022/12/24 07:33:11;;;;;;;;;;;;;;;22.88;67.14;98657.63;5020983;28;19924;-92
2022/12/24 07:35:36;;;;;;;;;;;;;;;23.23;66.86;98668.22;5035465;28;20299;-76
2022/12/24 07:38:03;;;;;;;;;;;;;;;22.89;47.75;98653.94;5046899;28;19929;-76
2022/12/24 07:40:28;;;;;;;;;;;;;;;22.53;38.25;98654.19;5008175;28;19916;-82
2022/12/24 07:42:54;;;;;;;;;;;;;;;22.30;39.27;98655.28;5005380;28;19923;-74
2022/12/24 07:45:19;;;;;;;;;;;;;;;22.07;40.26;98655.50;5022829;28;19921;-75
2022/12/24 07:47:44;;;;;;;;;;;;;;;21.59;34.81;98655.31;5040493;28;19959;-76
2022/12/24 07:50:10;;;;;;;;;;;;;;;21.41;34.10;98650.41;5026703;28;19924;-74
2022/12/24 07:52:35;;;;;;;;;;;;;;;20.96;31.35;98651.34;5028971;28;19920;-78
2022/12/24 07:55:00;;;;;;;;;;;;;;;20.71;32.92;98660.63;5009264;28;19925;-77
2022/12/24 07:57:26;;;;;;;;;;;;;;;20.38;31.40;98679.50;5025216;28;19921;-77
2022/12/24 07:59:51;;;;;;;;;;;;;;;20.08;30.81;98679.47;5030716;28;19924;-78
2022/12/24 08:02:16;;;;;;;;;;;;;;;20.36;44.38;98682.34;5008728;28;19925;-73
2022/12/24 08:04:42;;;;;;;;;;;;;;;20.66;37.93;98674.44;5042732;28;20498;-72
2022/12/24 08:07:07;;;;;;;;;;;;;;;20.57;38.24;98673.69;5026731;28;20364;-75
2022/12/24 08:09:33;;;;;;;;;;;;;;;20.30;33.46;98680.41;5044402;28;20399;-78
2022/12/24 08:11:58;;;;;;;;;;;;;;;20.11;35.61;98676.47;5007718;28;20383;-76
2022/12/24 08:14:23;;;;;;;;;;;;;;;20.27;32.97;98680.78;5024308;28;20755;-79
2022/12/24 08:16:49;;;;;;;;;;;;;;;20.21;31.20;98684.19;5008684;28;20375;-86
2022/12/24 08:19:15;;;;;;;;;;;;;;;20.33;32.88;98682.72;5025383;28;20402;-86
2022/12/24 08:21:40;;;;;;;;;;;;;;;20.79;32.01;98676.44;5026627;28;19916;-81
2022/12/24 08:24:05;;;;;;;;;;;;;;;21.21;31.46;98679.41;5030065;28;20359;-83
2022/12/24 08:26:31;;;;;;;;;;;;;;;21.56;31.47;98679.59;5023678;28;20067;-81
2022/12/24 08:28:56;;;;;;;;;;;;;;;21.99;35.59;98674.25;5024385;28;20034;-82
2022/12/24 08:31:21;;;;;;;;;;;;;;;22.33;34.81;98664.69;5027379;28;19921;-80
2022/12/24 08:33:47;;;;;;;;;;;;;;;21.97;36.50;98668.31;5012118;28;20359;-79
2022/12/24 08:36:12;;;;;;;;;;;;;;;22.38;37.72;98675.59;5012414;28;20415;-81
2022/12/24 08:38:37;;;;;;;;;;;;;;;22.46;38.67;98666.63;5044701;28;19925;-85
2022/12/24 08:41:03;;;;;;;;;;;;;;;22.74;39.32;98672.72;5012602;28;19921;-82
2022/12/24 08:43:28;;;;;;;;;;;;;;;22.97;38.57;98655.63;5013316;28;19917;-84
2022/12/24 08:45:53;;;;;;;;;;;;;;;23.00;40.89;98657.06;5021653;28;20466;-80
2022/12/24 08:48:19;;;;;;;;;;;;;;;23.00;40.78;98654.41;5032389;28;19917;-86
2022/12/24 08:50:44;;;;;;;;;;;;;;;23.12;39.51;98658.97;5027207;28;20061;-84
2022/12/24 08:53:10;;;;;;;;;;;;;;;23.36;36.11;98655.97;5018865;28;19928;-85
2022/12/24 08:55:35;;;;;;;;;;;;;;;23.46;33.96;98651.88;5017432;28;19921;-91
2022/12/24 08:58:00;;;;;;;;;;;;;;;23.67;35.52;98645.56;5015992;28;19921;-85
2022/12/24 09:00:26;;;;;;;;;;;;;;;24.05;35.90;98649.47;5008822;28;19964;-81
2022/12/24 09:02:51;;;;;;;;;;;;;;;24.29;29.88;98649.84;5016336;28;20533;-77
2022/12/24 09:05:16;;;;;;;;;;;;;;;24.54;29.50;98644.66;4993729;28;19979;-82
2022/12/24 09:07:42;;;;;;;;;;;;;;;24.68;25.49;98646.28;5024731;28;19996;-79
2022/12/24 09:10:10;;;;;;;;;;;;;;;24.94;30.93;98655.25;5013336;28;19967;-78
2022/12/24 09:12:35;;;;;;;;;;;;;;;25.13;27.33;98648.16;5009684;28;19957;-81
2022/12/24 09:15:01;;;;;;;;;;;;;;;24.90;27.84;98644.16;5014771;28;19968;-77
2022/12/24 09:17:26;;;;;;;;;;;;;;;24.30;28.43;98646.97;4994400;28;20053;-81
2022/12/24 09:19:51;;;;;;;;;;;;;;;24.31;34.75;98643.28;4993970;28;20017;-84
2022/12/24 09:22:17;;;;;;;;;;;;;;;24.68;27.91;98638.28;4996356;28;19917;-81
2022/12/24 09:24:42;;;;;;;;;;;;;;;24.97;26.56;98649.47;5000670;28;19928;-79
2022/12/24 09:27:07;;;;;;;;;;;;;;;24.95;24.74;98646.19;5002155;28;19921;-80
2022/12/24 09:29:33;;;;;;;;;;;;;;;25.07;25.92;98643.69;5002142;28;19925;-82
2022/12/24 09:31:58;;;;;;;;;;;;;;;25.35;24.01;98631.81;5003438;28;19976;-83
2022/12/24 09:34:24;;;;;;;;;;;;;;;25.60;25.10;98638.03;5006953;28;20303;-79
2022/12/24 09:36:50;;;;;;;;;;;;;;;25.90;27.31;98641.91;5014585;28;20368;-88
2022/12/24 09:39:16;;;;;;;;;;;;;;;26.34;26.41;98635.53;5045798;28;19921;-85
2022/12/24 09:41:44;;;;;;;;;;;;;;;27.09;24.79;98636.34;5007917;28;19912;-83
2022/12/24 09:44:18;;;;;;;;;;;;;;;28.11;22.95;98630.03;5046144;28;19929;-83
2022/12/24 09:46:44;;;;;;;;;;;;;;;28.92;20.62;98641.97;5029980;28;19921;-84
2022/12/24 09:49:11;;;;;;;;;;;;;;;29.40;20.07;98641.53;5011805;28;19921;-81
2022/12/24 09:51:38;;;;;;;;;;;;;;;30.15;19.03;98643.28;5026311;28;19925;-84
2022/12/24 09:54:17;;;;;;;;;;;;;;;30.91;19.58;98632.69;5033690;28;20693;-84
2022/12/24 09:56:43;;;;;;;;;;;;;;;31.63;17.16;98624.50;5030906;28;19923;-83
2022/12/24 09:59:17;;;;;;;;;;;;;;;32.02;18.89;98619.66;5031427;28;19917;-88
2022/12/24 10:01:42;;;;;;;;;;;;;;;32.28;16.58;98620.66;5041575;28;20308;-82
2022/12/24 10:04:11;;;;;;;;;;;;;;;30.96;18.15;98613.94;5022928;28;19917;-89
2022/12/24 10:06:55;;;;;;;;;;;;;;;29.55;23.29;98624.03;5012651;28;19921;-84
2022/12/24 10:09:24;;;;;;;;;;;;;;;27.47;21.90;98623.66;5048992;28;19928;-85
2022/12/24 10:12:09;;;;;;;;;;;;;;;25.44;23.16;98617.16;5052274;28;20072;-87
2022/12/24 10:14:40;;;;;;;;;;;;;;;24.23;30.96;98626.66;5052091;28;19924;-85
2022/12/24 10:17:05;;;;;;;;;;;;;;;23.43;31.18;98624.84;5046696;28;20008;-79
2022/12/24 10:19:43;;;;;;;;;;;;;;;22.90;33.22;98628.16;5030754;28;20012;-77
2022/12/24 10:22:27;;;;;;;;;;;;;;;22.20;30.25;98626.34;5036780;28;19923;-79
2022/12/24 10:24:58;;;;;;;;;;;;;;;21.74;35.98;98628.66;5053072;28;19916;-84
2022/12/24 10:27:25;;;;;;;;;;;;;;;21.40;35.57;98635.50;5033299;28;19921;-80
2022/12/24 10:29:52;;;;;;;;;;;;;;;20.93;34.14;98637.63;5019641;28;20307;-86
2022/12/24 10:32:21;;;;;;;;;;;;;;;20.51;30.52;98639.09;5018895;28;19921;-78
2022/12/24 10:35:07;;;;;;;;;;;;;;;20.02;29.83;98635.13;5033978;28;19920;-87
2022/12/24 10:37:34;;;;;;;;;;;;;;;19.52;32.26;98627.59;5028544;28;19980;-85
2022/12/24 10:39:59;;;;;;;;;;;;;;;18.89;32.54;98631.31;5015100;28;19925;-84
2022/12/24 10:42:37;;;;;;;;;;;;;;;18.68;37.63;98635.34;5029141;28;19967;-88
2022/12/24 10:45:05;;;;;;;;;;;;;;;18.47;37.16;98622.69;5054735;28;19921;-83
2022/12/24 10:47:31;;;;;;;;;;;;;;;18.16;33.59;98620.78;5015774;28;20307;-84
2022/12/24 10:50:02;;;;;;;;;;;;;;;17.78;33.35;98617.03;5027246;28;19928;-82
2022/12/24 10:52:28;;;;;;;;;;;;;;;17.49;34.02;98613.91;5032316;28;19925;-79
2022/12/24 10:55:06;;;;;;;;;;;;;;;17.25;33.62;98619.13;5009813;28;19939;-83
2022/12/24 10:57:31;;;;;;;;;;;;;;;17.02;34.25;98617.13;5046694;28;19959;-76
2022/12/24 10:59:56;;;;;;;;;;;;;;;16.83;34.83;98615.56;5051643;28;19960;-79
2022/12/24 11:02:27;;;;;;;;;;;;;;;16.77;35.01;98614.38;5015004;28;20405;-83
2022/12/24 11:04:52;;;;;;;;;;;;;;;16.62;35.41;98616.00;5010731;28;20089;-78
2022/12/24 11:07:20;;;;;;;;;;;;;;;16.88;51.65;98615.13;5030281;28;20430;-88
2022/12/24 11:10:03;;;;;;;;;;;;;;;16.84;43.58;98611.94;5041391;28;20051;-92
2022/12/24 11:12:32;;;;;;;;;;;;;;;16.76;38.89;98606.63;5015396;28;20355;-86
2022/12/24 11:15:02;;;;;;;;;;;;;;;16.57;38.38;98607.72;5029445;28;19917;-78
2022/12/24 11:17:27;;;;;;;;;;;;;;;16.58;43.97;98602.28;5012715;28;20403;-87
2022/12/24 11:19:54;;;;;;;;;;;;;;;16.69;47.78;98611.72;5013606;28;19925;-91
2022/12/24 11:22:21;;;;;;;;;;;;;;;16.84;43.76;98604.03;5020288;28;19959;-88
2022/12/24 11:24:46;;;;;;;;;;;;;;;16.91;42.12;98597.16;5021590;28;19923;-87
2022/12/24 11:27:27;;;;;;;;;;;;;;;17.02;42.21;98592.59;5036010;28;20039;-88
2022/12/24 11:29:52;;;;;;;;;;;;;;;17.13;42.17;98593.09;5052360;28;19917;-90
2022/12/24 11:32:21;;;;;;;;;;;;;;;17.23;42.61;98590.28;5039489;28;19984;-87
2022/12/24 11:34:46;;;;;;;;;;;;;;;17.30;43.64;98596.56;5037014;28;19923;-84
2022/12/24 11:37:22;;;;;;;;;;;;;;;17.38;43.74;98595.75;5053608;28;19921;-86
2022/12/24 11:40:10;;;;;;;;;;;;;;;17.72;47.30;98594.75;5032904;28;19996;-79
2022/12/24 11:42:37;;;;;;;;;;;;;;;17.81;46.21;98601.69;5051028;28;19917;-87
2022/12/24 11:45:05;;;;;;;;;;;;;;;17.81;44.80;98601.69;5035988;28;19924;-82
2022/12/24 11:47:31;;;;;;;;;;;;;;;17.75;42.11;98598.88;5034708;28;19916;-81
2022/12/24 11:50:13;;;;;;;;;;;;;;;17.72;42.12;98600.03;5013021;28;19950;-86
2022/12/24 11:52:38;;;;;;;;;;;;;;;17.73;45.27;98605.16;5019178;28;19936;-89
2022/12/24 11:55:03;;;;;;;;;;;;;;;17.70;41.13;98589.63;5018476;28;19921;-82
2022/12/24 11:57:31;;;;;;;;;;;;;;;17.70;47.81;98599.38;5052464;28;20406;-80
2022/12/24 11:59:56;;;;;;;;;;;;;;;17.69;46.86;98605.63;5017601;28;19952;-80
2022/12/24 12:02:32;;;;;;;;;;;;;;;17.67;47.34;98600.53;5010031;28;19921;-74
2022/12/24 12:04:58;;;;;;;;;;;;;;;17.69;45.48;98603.00;5034599;28;19960;-72
2022/12/24 12:07:24;;;;;;;;;;;;;;;17.56;47.17;98603.50;5052259;28;19920;-74
2022/12/24 12:09:51;;;;;;;;;;;;;;;17.49;40.81;98598.06;5018141;28;20407;-86
2022/12/24 12:12:26;;;;;;;;;;;;;;;17.48;39.91;98600.88;5034380;28;20354;-78
2022/12/24 12:14:51;;;;;;;;;;;;;;;17.65;40.90;98596.41;5034064;28;19921;-87
2022/12/24 12:17:26;;;;;;;;;;;;;;;17.73;38.93;98585.84;5034518;28;19940;-89
2022/12/24 12:19:57;;;;;;;;;;;;;;;17.81;39.94;98585.84;5018955;28;19963;-82
2022/12/24 12:22:29;;;;;;;;;;;;;;;17.91;46.08;98580.41;5034932;28;19924;-87
2022/12/24 12:24:55;;;;;;;;;;;;;;;18.04;42.76;98585.16;5052121;28;19927;-83
2022/12/24 12:27:40;;;;;;;;;;;;;;;18.04;42.30;98577.22;5034490;28;19917;-89
2022/12/24 12:30:09;;;;;;;;;;;;;;;18.04;43.41;98593.91;5038456;28;19975;-93
2022/12/24 12:32:37;;;;;;;;;;;;;;;18.01;41.88;98586.34;5037696;28;19921;-88
2022/12/24 12:35:21;;;;;;;;;;;;;;;17.97;42.20;98595.56;5038116;28;19932;-82
2022/12/24 12:37:48;;;;;;;;;;;;;;;17.83;42.52;98610.25;5018252;28;19928;-80
2022/12/24 12:40:14;;;;;;;;;;;;;;;17.53;37.41;98596.72;5033686;28;19921;-79
2022/12/24 12:42:40;;;;;;;;;;;;;;;17.00;43.28;98605.94;5016455;28;20372;-86
2022/12/24 12:45:24;;;;;;;;;;;;;;;16.96;45.68;98607.22;5017755;28;19927;-88
2022/12/24 12:47:49;;;;;;;;;;;;;;;16.91;46.24;98598.97;5052748;28;19943;-89
2022/12/24 12:50:27;;;;;;;;;;;;;;;16.83;46.98;98587.38;5037171;28;20396;-89
2022/12/24 12:53:04;;;;;;;;;;;;;;;16.75;46.07;98584.72;5036828;28;19991;-88
2022/12/24 12:55:48;;;;;;;;;;;;;;;16.74;49.06;98590.97;5019507;28;20419;-86
2022/12/24 12:58:40;;;;;;;;;;;;;;;16.74;45.29;98582.25;5038057;28;20035;-88
2022/12/24 13:01:11;;;;;;;;;;;;;;;16.69;45.90;98584.56;5011577;28;20391;-83